createdAt,value
2023-03-18T00:00:11.423Z,5.73
2023-03-18T00:02:39.129Z,6.13
2023-03-18T00:05:07.740Z,7.00
2023-03-18T00:07:36.249Z,7.20
2023-03-18T00:10:04.518Z,6.47
2023-03-18T00:12:32.470Z,5.67
2023-03-18T00:14:59.726Z,5.07
2023-03-18T00:17:26.396Z,6.47
2023-03-18T00:19:52.856Z,5.80
2023-03-18T00:22:19.402Z,5.83
2023-03-18T00:24:45.991Z,6.00
2023-03-18T00:27:12.821Z,5.67
2023-03-18T00:29:40.090Z,6.20
2023-03-18T00:32:06.876Z,5.13
2023-03-18T00:34:33.497Z,5.73
2023-03-18T00:37:00.245Z,5.47
2023-03-18T00:39:28.850Z,5.70
2023-03-18T00:41:56.744Z,5.10
2023-03-18T00:44:25.341Z,5.17
2023-03-18T00:46:52.082Z,5.40
2023-03-18T00:49:19.131Z,5.53
2023-03-18T00:51:46.595Z,5.20
2023-03-18T00:54:16.328Z,5.13
2023-03-18T00:56:43.074Z,4.77
2023-03-18T00:59:09.570Z,5.23
2023-03-18T01:01:36.720Z,6.10
2023-03-18T01:04:04.391Z,4.70
2023-03-18T01:06:34.024Z,4.83
2023-03-18T01:09:05.010Z,4.97
2023-03-18T01:11:31.715Z,4.87
2023-03-18T01:13:59.481Z,5.00
2023-03-18T01:16:26.584Z,4.50
2023-03-18T01:18:53.838Z,5.00
2023-03-18T01:21:20.942Z,4.60
2023-03-18T01:23:48.348Z,4.30
2023-03-18T01:26:15.391Z,4.87
2023-03-18T01:28:42.408Z,4.80
2023-03-18T01:31:09.618Z,4.53
2023-03-18T01:33:36.708Z,4.13
2023-03-18T01:36:05.000Z,4.27
2023-03-18T01:38:32.501Z,4.53
2023-03-18T01:41:00.457Z,4.80
2023-03-18T01:43:30.678Z,4.43
2023-03-18T01:45:59.246Z,4.03
2023-03-18T01:48:29.868Z,4.33
2023-03-18T01:51:01.108Z,4.53
2023-03-18T01:53:31.750Z,4.53
2023-03-18T01:55:59.190Z,4.63
2023-03-18T01:58:32.020Z,4.20
2023-03-18T02:01:02.707Z,3.70
2023-03-18T02:03:29.446Z,4.10
2023-03-18T02:05:56.028Z,3.50
2023-03-18T02:08:22.711Z,3.77
2023-03-18T02:10:49.819Z,4.10
2023-03-18T02:13:17.030Z,4.43
2023-03-18T02:15:48.222Z,3.77
2023-03-18T02:18:29.933Z,4.43
2023-03-18T02:21:23.007Z,4.53
2023-03-18T02:23:58.623Z,4.57
2023-03-18T02:26:48.221Z,4.10
2023-03-18T02:29:15.938Z,3.90
2023-03-18T02:31:43.397Z,3.63
2023-03-18T02:34:10.398Z,3.97
2023-03-18T02:36:37.262Z,4.17
2023-03-18T02:39:04.637Z,4.20
2023-03-18T02:41:34.081Z,3.90
2023-03-18T02:44:01.344Z,4.23
2023-03-18T02:46:31.222Z,3.70
2023-03-18T02:48:59.962Z,4.67
2023-03-18T02:51:27.204Z,4.03
2023-03-18T02:54:01.743Z,3.77
2023-03-18T02:56:28.252Z,3.43
2023-03-18T02:58:55.151Z,3.47
2023-03-18T03:01:22.259Z,3.80
2023-03-18T03:03:48.876Z,3.67
2023-03-18T03:06:15.723Z,3.47
2023-03-18T03:08:42.360Z,3.90
2023-03-18T03:11:08.900Z,4.00
2023-03-18T03:13:35.646Z,3.50
2023-03-18T03:16:02.514Z,3.13
2023-03-18T03:18:30.439Z,3.53
2023-03-18T03:20:56.928Z,2.87
2023-03-18T03:23:23.459Z,3.10
2023-03-18T03:25:50.172Z,3.30
2023-03-18T03:28:17.068Z,3.00
2023-03-18T03:30:43.933Z,3.10
2023-03-18T03:33:10.986Z,3.57
2023-03-18T03:35:38.992Z,3.33
2023-03-18T03:38:05.666Z,2.93
2023-03-18T03:40:32.412Z,3.10
2023-03-18T03:42:59.288Z,3.43
2023-03-18T03:45:25.768Z,3.23
2023-03-18T03:47:52.516Z,3.27
2023-03-18T03:50:19.091Z,3.13
2023-03-18T03:52:47.548Z,3.50
2023-03-18T03:55:17.434Z,3.50
2023-03-18T03:57:45.164Z,2.63
2023-03-18T04:00:14.182Z,3.27
2023-03-18T04:02:42.016Z,3.07
2023-03-18T04:05:09.469Z,3.17
2023-03-18T04:07:36.289Z,2.80
2023-03-18T04:10:03.195Z,3.63
2023-03-18T04:12:29.713Z,3.20
2023-03-18T04:14:56.484Z,3.03
2023-03-18T04:17:23.315Z,2.97
2023-03-18T04:19:50.152Z,3.10
2023-03-18T04:22:16.639Z,3.50
2023-03-18T04:24:43.142Z,3.17
2023-03-18T04:27:09.628Z,3.20
2023-03-18T04:29:36.142Z,3.27
2023-03-18T04:32:02.840Z,3.10
2023-03-18T04:34:29.408Z,3.07
2023-03-18T04:36:56.044Z,3.27
2023-03-18T04:39:23.021Z,3.50
2023-03-18T04:41:49.481Z,3.27
2023-03-18T04:44:17.287Z,3.50
2023-03-18T04:46:43.824Z,3.43
2023-03-18T04:49:10.577Z,2.90
2023-03-18T04:51:37.648Z,3.43
2023-03-18T04:54:04.435Z,2.70
2023-03-18T04:56:31.479Z,3.00
2023-03-18T04:58:58.016Z,2.80
2023-03-18T05:01:24.634Z,2.83
2023-03-18T05:03:51.806Z,3.00
2023-03-18T05:06:27.064Z,2.80
2023-03-18T05:08:54.286Z,3.30
2023-03-18T05:11:21.357Z,2.90
2023-03-18T05:13:52.137Z,2.90
2023-03-18T05:16:19.173Z,2.70
2023-03-18T05:18:47.373Z,2.77
2023-03-18T05:21:13.994Z,2.83
2023-03-18T05:23:41.079Z,2.87
2023-03-18T05:26:07.763Z,3.27
2023-03-18T05:28:34.365Z,2.97
2023-03-18T05:31:00.984Z,2.87
2023-03-18T05:33:27.465Z,2.77
2023-03-18T05:35:53.964Z,2.80
2023-03-18T05:38:20.640Z,2.60
2023-03-18T05:40:48.519Z,3.00
2023-03-18T05:43:15.013Z,2.93
2023-03-18T05:45:42.315Z,2.80
2023-03-18T05:48:09.013Z,3.20
2023-03-18T05:50:37.618Z,3.30
2023-03-18T05:53:05.528Z,3.10
2023-03-18T05:55:33.127Z,2.97
2023-03-18T05:58:00.491Z,3.20
2023-03-18T06:00:28.805Z,3.00
2023-03-18T09:09:37.346Z,2.97
2023-03-18T09:12:11.870Z,2.87
2023-03-18T09:14:38.946Z,3.13
2023-03-18T09:17:09.254Z,3.10
2023-03-18T09:19:36.598Z,2.93
2023-03-18T09:22:04.575Z,3.10
2023-03-18T09:24:31.972Z,3.50
2023-03-18T09:26:59.993Z,2.77
2023-03-18T09:29:27.770Z,2.70
2023-03-18T09:31:54.730Z,2.50
2023-03-18T09:34:21.625Z,3.00
2023-03-18T09:36:51.328Z,3.10
2023-03-18T09:39:19.240Z,2.60
2023-03-18T09:42:21.708Z,3.17
2023-03-18T09:44:57.296Z,3.07
2023-03-18T09:47:48.221Z,2.70
2023-03-18T09:50:34.260Z,3.23
2023-03-18T09:53:11.890Z,3.17
2023-03-18T09:55:51.035Z,3.07
2023-03-18T09:58:26.303Z,3.20
2023-03-18T10:01:00.856Z,3.30
2023-03-18T10:03:51.105Z,2.70
2023-03-18T10:06:20.587Z,5.60
2023-03-18T10:09:24.806Z,3.00
2023-03-18T10:11:52.599Z,3.03
2023-03-18T10:14:43.893Z,3.20
2023-03-18T10:17:18.709Z,2.70
2023-03-18T10:19:52.465Z,2.43
2023-03-18T10:23:00.446Z,2.50
2023-03-18T10:26:08.612Z,3.00
2023-03-18T10:28:59.395Z,2.50
2023-03-18T10:31:55.033Z,2.87
2023-03-18T10:34:23.420Z,2.37
2023-03-18T10:36:57.302Z,2.80
2023-03-18T10:39:26.359Z,2.60
2023-03-18T10:41:54.982Z,2.60
2023-03-18T10:44:36.836Z,2.57
2023-03-18T10:47:22.451Z,3.13
2023-03-18T10:50:14.734Z,3.17
2023-03-18T10:52:59.122Z,2.60
2023-03-18T10:55:31.095Z,2.33
2023-03-18T10:57:57.833Z,2.80
2023-03-18T11:00:33.019Z,2.47
2023-03-18T11:03:00.604Z,2.80
2023-03-18T11:05:33.562Z,2.90
2023-03-18T11:08:06.787Z,2.97
2023-03-18T11:10:46.146Z,2.83
2023-03-18T11:13:20.026Z,3.57
2023-03-18T11:15:50.739Z,2.70
2023-03-18T11:18:20.313Z,2.70
2023-03-18T11:20:49.291Z,3.33
2023-03-18T11:23:20.453Z,3.33
2023-03-18T11:25:48.840Z,2.97
2023-03-18T11:28:30.176Z,2.90
2023-03-18T11:30:58.601Z,3.00
2023-03-18T11:33:29.686Z,3.53
2023-03-18T11:36:06.343Z,3.20
2023-03-18T11:38:35.888Z,3.17
2023-03-18T11:41:09.103Z,3.40
2023-03-18T11:43:38.060Z,2.70
2023-03-18T11:46:07.564Z,2.93
2023-03-18T11:48:38.608Z,2.90
2023-03-18T11:51:30.199Z,3.03
2023-03-18T11:53:56.811Z,2.93
2023-03-18T11:56:47.408Z,2.80
2023-03-18T11:59:29.026Z,3.07
2023-03-18T12:02:29.526Z,3.03
2023-03-18T12:04:59.395Z,2.70
2023-03-18T12:07:47.329Z,2.87
2023-03-18T12:10:15.330Z,3.00
2023-03-18T12:13:26.176Z,3.13
2023-03-18T12:16:15.058Z,2.70
2023-03-18T12:19:11.134Z,2.77
2023-03-18T12:21:44.646Z,2.60
2023-03-18T12:24:26.840Z,3.37
2023-03-18T12:27:03.210Z,2.93
2023-03-18T12:29:54.905Z,2.93
2023-03-18T12:32:33.714Z,3.47
2023-03-18T12:35:27.838Z,3.30
2023-03-18T12:38:17.639Z,2.70
2023-03-18T12:41:25.289Z,3.17
2023-03-18T12:43:56.206Z,3.20
2023-03-18T12:46:30.765Z,2.73
2023-03-18T12:49:04.838Z,3.40
2023-03-18T12:52:00.825Z,3.03
2023-03-18T12:54:56.783Z,3.70
2023-03-18T12:57:51.140Z,3.23
2023-03-18T13:00:36.790Z,3.90
2023-03-18T13:03:24.742Z,3.03
2023-03-18T13:06:05.349Z,3.30
2023-03-18T13:09:00.426Z,3.27
2023-03-18T13:11:38.624Z,2.97
2023-03-18T13:14:42.685Z,3.80
2023-03-18T13:17:37.271Z,2.57
2023-03-18T13:20:22.346Z,2.90
2023-03-18T13:22:52.197Z,3.60
2023-03-18T13:25:41.250Z,3.00
2023-03-18T13:28:26.998Z,2.90
2023-03-18T13:31:01.186Z,3.43
2023-03-18T13:33:54.027Z,2.97
2023-03-18T13:36:29.180Z,3.13
2023-03-18T13:39:27.577Z,3.30
2023-03-18T13:42:28.646Z,2.90
2023-03-18T13:45:01.715Z,2.73
2023-03-18T13:47:31.672Z,2.83
2023-03-18T13:50:01.200Z,2.93
2023-03-18T13:52:35.234Z,3.00
2023-03-18T13:55:07.273Z,2.90
2023-03-18T13:57:42.730Z,2.63
2023-03-18T14:00:22.594Z,3.10
2023-03-18T14:03:02.903Z,3.20
2023-03-18T14:05:32.450Z,3.20
2023-03-18T14:08:00.353Z,3.80
2023-03-18T14:10:27.732Z,3.80
2023-03-18T14:12:54.372Z,3.67
2023-03-18T14:15:23.702Z,3.23
2023-03-18T14:17:56.971Z,3.63
2023-03-18T14:20:28.757Z,4.20
2023-03-18T14:22:57.263Z,3.17
2023-03-18T14:25:39.406Z,4.23
2023-03-18T14:28:09.470Z,3.40
2023-03-18T14:30:36.239Z,3.30
2023-03-18T14:33:25.897Z,3.80
2023-03-18T14:36:01.996Z,3.63
2023-03-18T14:38:38.294Z,4.13
2023-03-18T14:41:23.461Z,4.00
2023-03-18T14:44:03.080Z,3.90
2023-03-18T14:46:34.247Z,3.87
2023-03-18T14:49:00.948Z,3.70
2023-03-18T14:51:30.548Z,3.67
2023-03-18T14:54:04.686Z,3.90
2023-03-18T14:56:38.727Z,4.10
2023-03-18T14:59:05.245Z,3.33
2023-03-18T15:01:36.651Z,4.20
2023-03-18T15:04:05.150Z,3.97
2023-03-18T15:06:32.437Z,4.23
2023-03-18T15:09:06.927Z,3.53
2023-03-18T15:11:41.329Z,3.77
2023-03-18T15:14:30.097Z,3.10
2023-03-18T15:16:59.923Z,3.53
2023-03-18T15:19:29.002Z,3.70
2023-03-18T15:21:58.062Z,3.70
2023-03-18T15:24:26.571Z,3.80
2023-03-18T15:27:30.829Z,4.03
2023-03-18T15:29:59.298Z,4.17
2023-03-18T15:32:33.883Z,4.13
2023-03-18T15:35:15.492Z,4.60
2023-03-18T15:37:43.924Z,4.27
2023-03-18T15:40:22.438Z,4.37
2023-03-18T15:42:49.752Z,4.57
2023-03-18T15:45:21.509Z,4.40
2023-03-18T15:47:48.684Z,4.80
2023-03-18T15:50:18.792Z,4.50
2023-03-18T15:52:47.810Z,4.67
2023-03-18T15:55:31.870Z,4.47
2023-03-18T15:57:59.140Z,4.30
2023-03-18T16:00:26.404Z,4.60
2023-03-18T16:02:54.172Z,4.80
2023-03-18T16:05:26.616Z,4.70
2023-03-18T16:07:53.955Z,4.23
2023-03-18T16:10:23.155Z,4.50
2023-03-18T16:13:00.854Z,5.33
2023-03-18T16:15:28.557Z,4.83
2023-03-18T16:17:56.487Z,4.93
2023-03-18T16:20:26.125Z,4.80
2023-03-18T16:22:52.745Z,5.13
2023-03-18T16:25:19.765Z,5.10
2023-03-18T16:27:48.908Z,5.43
2023-03-18T16:30:30.639Z,5.67
2023-03-18T16:32:58.325Z,5.07
2023-03-18T16:35:33.647Z,4.93
2023-03-18T16:38:00.975Z,5.53
2023-03-18T16:40:29.626Z,5.03
2023-03-18T16:42:56.643Z,4.97
2023-03-18T16:45:31.363Z,5.07
2023-03-18T16:48:04.306Z,4.93
2023-03-18T16:50:35.103Z,5.23
2023-03-18T16:53:02.978Z,4.93
2023-03-18T16:55:29.786Z,5.03
2023-03-18T16:57:59.256Z,4.70
2023-03-18T17:00:32.313Z,5.77
2023-03-18T17:03:00.610Z,5.23
2023-03-18T17:05:28.282Z,4.90
2023-03-18T17:07:55.545Z,5.27
2023-03-18T17:10:24.348Z,5.33
2023-03-18T17:13:02.855Z,4.70
2023-03-18T17:15:32.013Z,5.20
2023-03-18T17:17:59.753Z,5.57
2023-03-18T17:20:28.626Z,5.03
2023-03-18T17:22:55.732Z,4.87
2023-03-18T17:25:24.483Z,5.00
2023-03-18T17:28:06.120Z,4.40
2023-03-18T17:30:38.094Z,5.67
2023-03-18T17:33:25.416Z,5.23
2023-03-18T17:35:52.593Z,5.23
2023-03-18T17:38:20.020Z,6.03
2023-03-18T17:40:48.196Z,6.03
2023-03-18T17:43:28.133Z,5.73
2023-03-18T17:45:56.630Z,6.23
2023-03-18T17:48:25.851Z,5.50
2023-03-18T17:50:55.585Z,5.73
2023-03-18T17:53:27.099Z,6.13
2023-03-18T17:55:54.787Z,6.23
2023-03-18T17:58:23.780Z,6.63
2023-03-18T18:00:52.027Z,6.27
2023-03-18T18:03:27.477Z,5.90
2023-03-18T18:05:55.344Z,6.40
2023-03-18T18:08:24.727Z,5.90
2023-03-18T18:10:53.462Z,5.97
2023-03-18T18:13:23.643Z,7.23
2023-03-18T18:15:51.096Z,7.17
2023-03-18T18:18:25.253Z,6.90
2023-03-18T18:20:57.212Z,6.73
2023-03-18T18:23:37.098Z,6.33
2023-03-18T18:26:06.070Z,6.87
2023-03-18T18:28:34.677Z,7.00
2023-03-18T18:31:03.284Z,6.93
2023-03-18T18:33:31.365Z,6.67
2023-03-18T18:35:58.254Z,7.20
2023-03-18T18:38:28.383Z,8.00
2023-03-18T18:40:56.331Z,7.57
2023-03-18T18:43:24.481Z,7.80
2023-03-18T18:45:52.697Z,8.00
2023-03-18T18:48:27.541Z,7.77
2023-03-18T18:50:54.191Z,7.40
2023-03-18T18:53:32.006Z,7.37
2023-03-18T18:56:01.280Z,7.83
2023-03-18T18:58:30.414Z,7.80
2023-03-18T19:00:57.784Z,6.90
2023-03-18T19:03:29.242Z,7.00
2023-03-18T19:05:55.865Z,7.50
2023-03-18T19:08:27.678Z,8.30
2023-03-18T19:10:56.476Z,8.70
2023-03-18T19:13:28.345Z,8.60
2023-03-18T19:15:58.791Z,7.60
2023-03-18T19:18:27.087Z,8.70
2023-03-18T19:20:53.768Z,8.33
2023-03-18T19:23:25.867Z,8.00
2023-03-18T19:25:53.389Z,9.63
2023-03-18T19:28:47.705Z,8.67
2023-03-18T19:31:23.158Z,7.80
2023-03-18T19:33:51.587Z,8.50
2023-03-18T19:36:27.582Z,8.80
2023-03-18T19:38:55.245Z,9.00
2023-03-18T19:41:22.224Z,9.03
2023-03-18T19:43:49.590Z,9.17
2023-03-18T19:46:23.640Z,8.77
2023-03-18T19:48:50.726Z,9.50
2023-03-18T19:51:17.195Z,9.40
2023-03-18T19:53:45.275Z,8.30
2023-03-18T19:56:23.879Z,9.10
2023-03-18T19:58:54.932Z,9.27
2023-03-18T20:01:24.228Z,8.40
2023-03-18T20:03:54.612Z,8.87
2023-03-18T20:06:21.173Z,9.00
2023-03-18T20:08:47.740Z,9.03
2023-03-18T20:11:20.812Z,9.73
2023-03-18T20:13:48.119Z,9.60
2023-03-18T20:16:19.499Z,9.37
2023-03-18T20:18:46.293Z,9.30
2023-03-18T20:21:31.767Z,9.00
2023-03-18T20:24:02.184Z,9.13
2023-03-18T20:26:28.979Z,9.00
2023-03-18T20:28:56.184Z,9.60
2023-03-18T20:31:23.150Z,9.33
2023-03-18T20:33:49.780Z,10.67
2023-03-18T20:36:17.218Z,8.27
2023-03-18T20:38:45.585Z,8.93
2023-03-18T20:41:17.145Z,8.83
2023-03-18T20:43:44.644Z,9.20
2023-03-18T20:46:13.304Z,9.10
2023-03-18T20:48:40.429Z,8.30
2023-03-18T20:51:37.847Z,8.90
2023-03-18T20:54:17.711Z,8.50
2023-03-18T20:56:45.560Z,9.50
2023-03-18T20:59:12.490Z,9.03
2023-03-18T21:01:39.593Z,9.10
2023-03-18T21:04:07.614Z,10.50
2023-03-18T21:06:34.370Z,9.50
2023-03-18T21:09:01.305Z,9.23
2023-03-18T21:11:30.167Z,9.40
2023-03-18T21:13:56.840Z,10.17
2023-03-18T21:16:26.731Z,9.77
2023-03-18T21:18:53.400Z,9.13
2023-03-18T21:21:23.942Z,10.60
2023-03-18T21:23:52.234Z,9.70
2023-03-18T21:26:19.031Z,9.80
2023-03-18T21:28:45.918Z,10.50
2023-03-18T21:31:33.225Z,10.43
2023-03-18T21:34:01.327Z,8.80
2023-03-18T21:36:28.170Z,10.23
2023-03-18T21:38:55.443Z,9.50
2023-03-18T21:41:24.458Z,10.00
2023-03-18T21:43:51.125Z,9.40
2023-03-18T21:46:21.200Z,10.20
2023-03-18T21:48:48.151Z,10.77
2023-03-18T21:51:37.655Z,10.37
2023-03-18T21:54:05.782Z,10.07
2023-03-18T21:56:32.392Z,10.50
2023-03-18T21:58:59.075Z,11.00
2023-03-18T22:01:31.028Z,10.60
2023-03-18T22:03:58.056Z,9.70
2023-03-18T22:06:25.028Z,10.27
2023-03-18T22:08:52.128Z,10.20
2023-03-18T22:11:20.876Z,10.33
2023-03-18T22:13:48.314Z,10.70
2023-03-18T22:16:16.741Z,11.17
2023-03-18T22:18:44.382Z,10.53
2023-03-18T22:21:23.816Z,10.50
2023-03-18T22:23:50.801Z,11.67
2023-03-18T22:26:18.971Z,10.57
2023-03-18T22:28:46.220Z,10.90
2023-03-18T22:31:19.016Z,10.90
2023-03-18T22:33:46.383Z,10.43
2023-03-18T22:36:14.451Z,10.73
2023-03-18T22:38:41.112Z,11.93
2023-03-18T22:41:29.421Z,11.23
2023-03-18T22:43:57.883Z,11.63
2023-03-18T22:46:24.525Z,11.10
2023-03-18T22:48:51.107Z,11.37
2023-03-18T22:51:29.718Z,10.23
2023-03-18T22:53:56.789Z,11.13
2023-03-18T22:56:23.732Z,10.53
2023-03-18T22:58:50.545Z,11.73
2023-03-18T23:01:19.344Z,11.00
2023-03-18T23:03:47.385Z,11.23
2023-03-18T23:06:23.801Z,11.73
2023-03-18T23:08:50.496Z,10.63
2023-03-18T23:11:17.723Z,10.93
2023-03-18T23:13:49.705Z,10.33
2023-03-18T23:16:20.440Z,11.60
2023-03-18T23:18:47.484Z,11.30
2023-03-18T23:21:19.133Z,11.57
2023-03-18T23:23:45.813Z,12.60
2023-03-18T23:26:13.133Z,11.23
2023-03-18T23:28:45.632Z,12.40
2023-03-18T23:31:14.156Z,11.50
2023-03-18T23:33:40.834Z,11.80
2023-03-18T23:36:08.254Z,11.43
2023-03-18T23:38:34.786Z,11.77
2023-03-18T23:41:01.458Z,11.63
2023-03-18T23:43:27.995Z,13.43
2023-03-18T23:45:54.587Z,11.77
2023-03-18T23:48:21.278Z,12.10
2023-03-18T23:50:47.799Z,11.40
2023-03-18T23:53:14.334Z,11.17
2023-03-18T23:55:40.912Z,11.53
2023-03-18T23:58:07.491Z,12.17
